sensor_id;sensor_type;location;lat;lon;timestamp;pressure;altitude;pressure_sealevel;temperature;humidity
20860;BME280;10590;48.154;11.514;2022-12-22T00:03:34;95340.53;;;5.20;100.00
20860;BME280;10590;48.154;11.514;2022-12-22T00:08:53;95336.56;;;5.17;100.00
20860;BME280;10590;48.154;11.514;2022-12-22T00:14:12;95329.63;;;5.30;100.00
20860;BME280;10590;48.154;11.514;2022-12-22T00:19:33;95329.94;;;5.28;100.00
20860;BME280;10590;48.154;11.514;2022-12-22T00:24:52;95331.81;;;5.28;100.00
20860;BME280;10590;48.154;11.514;2022-12-22T00:30:12;95332.59;;;5.42;100.00
20860;BME280;10590;48.154;11.514;2022-12-22T00:35:33;95323.50;;;5.15;100.00
20860;BME280;10590;48.154;11.514;2022-12-22T00:40:52;95315.28;;;5.12;100.00
20860;BME280;10590;48.154;11.514;2022-12-22T00:46:11;95310.94;;;5.16;100.00
20860;BME280;10590;48.154;11.514;2022-12-22T00:51:34;95307.38;;;5.34;100.00
20860;BME280;10590;48.154;11.514;2022-12-22T00:56:54;95305.50;;;5.07;100.00
20860;BME280;10590;48.154;11.514;2022-12-22T01:02:13;95294.88;;;5.02;100.00
20860;BME280;10590;48.154;11.514;2022-12-22T01:07:33;95301.94;;;5.12;100.00
20860;BME280;10590;48.154;11.514;2022-12-22T01:12:52;95305.50;;;5.07;100.00
20860;BME280;10590;48.154;11.514;2022-12-22T01:18:12;95302.09;;;5.02;100.00
20860;BME280;10590;48.154;11.514;2022-12-22T01:23:32;95303.13;;;5.20;100.00
20860;BME280;10590;48.154;11.514;2022-12-22T01:28:51;95303.81;;;5.25;100.00
20860;BME280;10590;48.154;11.514;2022-12-22T01:34:11;95300.25;;;5.16;100.00
20860;BME280;10590;48.154;11.514;2022-12-22T01:39:31;95299.16;;;5.17;100.00
20860;BME280;10590;48.154;11.514;2022-12-22T01:44:50;95292.34;;;5.25;100.00
20860;BME280;10590;48.154;11.514;2022-12-22T01:50:09;95293.22;;;5.34;100.00
20860;BME280;10590;48.154;11.514;2022-12-22T01:55:30;95293.72;;;5.36;100.00
20860;BME280;10590;48.154;11.514;2022-12-22T02:00:49;95290.16;;;5.40;100.00
20860;BME280;10590;48.154;11.514;2022-12-22T02:06:14;95278.88;;;5.44;100.00
20860;BME280;10590;48.154;11.514;2022-12-22T02:11:45;95276.22;;;5.44;100.00
20860;BME280;10590;48.154;11.514;2022-12-22T02:17:10;95269.09;;;5.39;100.00
20860;BME280;10590;48.154;11.514;2022-12-22T02:22:42;95277.69;;;5.50;100.00
20860;BME280;10590;48.154;11.514;2022-12-22T02:28:07;95277.88;;;5.53;100.00
20860;BME280;10590;48.154;11.514;2022-12-22T02:33:27;95260.94;;;5.72;100.00
20860;BME280;10590;48.154;11.514;2022-12-22T02:38:54;95264.06;;;5.74;100.00
20860;BME280;10590;48.154;11.514;2022-12-22T02:44:24;95268.56;;;5.64;100.00
20860;BME280;10590;48.154;11.514;2022-12-22T02:49:52;95253.31;;;5.65;100.00
20860;BME280;10590;48.154;11.514;2022-12-22T02:55:13;95258.25;;;5.58;100.00
20860;BME280;10590;48.154;11.514;2022-12-22T03:00:34;95252.41;;;5.70;100.00
20860;BME280;10590;48.154;11.514;2022-12-22T03:05:53;95261.31;;;5.79;100.00
20860;BME280;10590;48.154;11.514;2022-12-22T03:11:12;95256.72;;;5.93;100.00
20860;BME280;10590;48.154;11.514;2022-12-22T03:16:32;95263.63;;;6.08;100.00
20860;BME280;10590;48.154;11.514;2022-12-22T03:21:51;95254.28;;;6.19;100.00
20860;BME280;10590;48.154;11.514;2022-12-22T03:27:10;95254.78;;;6.21;100.00
20860;BME280;10590;48.154;11.514;2022-12-22T03:32:13;95252.03;;;6.35;100.00
20860;BME280;10590;48.154;11.514;2022-12-22T03:37:14;95242.53;;;6.51;100.00
20860;BME280;10590;48.154;11.514;2022-12-22T03:42:16;95244.38;;;6.64;100.00
20860;BME280;10590;48.154;11.514;2022-12-22T03:47:37;95240.66;;;6.52;100.00
20860;BME280;10590;48.154;11.514;2022-12-22T03:52:38;95234.97;;;6.45;100.00
20860;BME280;10590;48.154;11.514;2022-12-22T03:57:40;95227.06;;;6.48;100.00
20860;BME280;10590;48.154;11.514;2022-12-22T04:02:43;95235.38;;;6.38;100.00
20860;BME280;10590;48.154;11.514;2022-12-22T04:07:45;95222.28;;;6.36;100.00
20860;BME280;10590;48.154;11.514;2022-12-22T04:12:46;95220.28;;;6.42;100.00
20860;BME280;10590;48.154;11.514;2022-12-22T04:17:58;95208.75;;;6.33;100.00
20860;BME280;10590;48.154;11.514;2022-12-22T04:23:00;95206.06;;;6.33;100.00
20860;BME280;10590;48.154;11.514;2022-12-22T04:28:04;95200.19;;;6.53;100.00
20860;BME280;10590;48.154;11.514;2022-12-22T04:33:07;95201.47;;;6.56;100.00
20860;BME280;10590;48.154;11.514;2022-12-22T04:38:09;95210.34;;;6.65;100.00
20860;BME280;10590;48.154;11.514;2022-12-22T04:43:10;95212.34;;;6.59;100.00
20860;BME280;10590;48.154;11.514;2022-12-22T04:48:13;95218.56;;;6.69;100.00
20860;BME280;10590;48.154;11.514;2022-12-22T04:53:15;95206.25;;;6.68;100.00
20860;BME280;10590;48.154;11.514;2022-12-22T04:58:17;95211.97;;;6.75;100.00
20860;BME280;10590;48.154;11.514;2022-12-22T05:03:20;95194.16;;;6.79;100.00
20860;BME280;10590;48.154;11.514;2022-12-22T05:08:21;95196.28;;;6.99;100.00
20860;BME280;10590;48.154;11.514;2022-12-22T05:13:23;95187.53;;;7.07;100.00
20860;BME280;10590;48.154;11.514;2022-12-22T05:18:26;95178.84;;;7.10;100.00
20860;BME280;10590;48.154;11.514;2022-12-22T05:23:27;95168.09;;;6.93;100.00
20860;BME280;10590;48.154;11.514;2022-12-22T05:28:29;95153.13;;;6.92;100.00
20860;BME280;10590;48.154;11.514;2022-12-22T05:33:33;95170.06;;;6.79;100.00
20860;BME280;10590;48.154;11.514;2022-12-22T05:38:34;95174.56;;;6.61;100.00
20860;BME280;10590;48.154;11.514;2022-12-22T05:43:36;95148.75;;;7.13;100.00
20860;BME280;10590;48.154;11.514;2022-12-22T05:48:40;95146.75;;;7.28;100.00
20860;BME280;10590;48.154;11.514;2022-12-22T05:53:42;95155.41;;;7.25;100.00
20860;BME280;10590;48.154;11.514;2022-12-22T05:58:43;95148.47;;;7.24;100.00
20860;BME280;10590;48.154;11.514;2022-12-22T06:03:46;95153.94;;;7.10;100.00
20860;BME280;10590;48.154;11.514;2022-12-22T06:08:48;95161.28;;;6.87;100.00
20860;BME280;10590;48.154;11.514;2022-12-22T06:13:49;95167.53;;;7.22;100.00
20860;BME280;10590;48.154;11.514;2022-12-22T06:18:52;95158.59;;;7.35;100.00
20860;BME280;10590;48.154;11.514;2022-12-22T06:23:56;95164.91;;;7.40;100.00
20860;BME280;10590;48.154;11.514;2022-12-22T06:28:58;95150.56;;;7.61;100.00
20860;BME280;10590;48.154;11.514;2022-12-22T06:34:01;95157.50;;;7.54;100.00
20860;BME280;10590;48.154;11.514;2022-12-22T06:39:03;95164.13;;;7.48;100.00
20860;BME280;10590;48.154;11.514;2022-12-22T17:29:19;95178.38;;;21.33;54.21
20860;BME280;10590;48.154;11.514;2022-12-22T18:25:14;95154.38;;;9.87;62.30
20860;BME280;10590;48.154;11.514;2022-12-22T18:30:19;95153.38;;;9.71;63.30
20860;BME280;10590;48.154;11.514;2022-12-22T18:35:24;95157.34;;;9.56;63.90
20860;BME280;10590;48.154;11.514;2022-12-22T18:40:29;95129.03;;;9.43;63.96
20860;BME280;10590;48.154;11.514;2022-12-22T18:45:31;95143.25;;;9.47;63.51
20860;BME280;10590;48.154;11.514;2022-12-22T18:50:33;95142.34;;;9.43;63.78
20860;BME280;10590;48.154;11.514;2022-12-22T18:55:36;95144.38;;;9.38;64.24
20860;BME280;10590;48.154;11.514;2022-12-22T19:00:38;95143.78;;;9.32;64.31
20860;BME280;10590;48.154;11.514;2022-12-22T19:05:52;95134.44;;;9.17;64.96
20860;BME280;10590;48.154;11.514;2022-12-22T19:10:57;95131.63;;;9.14;65.19
20860;BME280;10590;48.154;11.514;2022-12-22T19:16:00;95121.94;;;9.09;65.09
20860;BME280;10590;48.154;11.514;2022-12-22T19:21:03;95130.53;;;9.15;65.10
20860;BME280;10590;48.154;11.514;2022-12-22T19:26:06;95128.53;;;9.03;65.90
20860;BME280;10590;48.154;11.514;2022-12-22T19:31:20;95113.34;;;8.95;66.12
20860;BME280;10590;48.154;11.514;2022-12-22T19:36:23;95121.19;;;8.91;66.63
20860;BME280;10590;48.154;11.514;2022-12-22T19:41:35;95111.47;;;8.96;66.82
20860;BME280;10590;48.154;11.514;2022-12-22T19:46:38;95098.34;;;8.90;66.33
20860;BME280;10590;48.154;11.514;2022-12-22T19:51:39;95094.59;;;8.91;66.78
20860;BME280;10590;48.154;11.514;2022-12-22T19:56:44;95111.00;;;9.02;66.79
20860;BME280;10590;48.154;11.514;2022-12-22T20:01:46;95093.09;;;9.20;66.52
20860;BME280;10590;48.154;11.514;2022-12-22T20:06:48;95094.34;;;9.14;66.89
20860;BME280;10590;48.154;11.514;2022-12-22T20:11:51;95089.38;;;9.04;66.86
20860;BME280;10590;48.154;11.514;2022-12-22T20:16:53;95101.06;;;9.20;66.85
20860;BME280;10590;48.154;11.514;2022-12-22T20:21:54;95076.31;;;9.28;66.04
20860;BME280;10590;48.154;11.514;2022-12-22T20:26:58;95074.19;;;9.42;65.43
20860;BME280;10590;48.154;11.514;2022-12-22T20:31:59;95074.78;;;9.56;64.83
20860;BME280;10590;48.154;11.514;2022-12-22T20:37:01;95078.50;;;9.64;64.75
20860;BME280;10590;48.154;11.514;2022-12-22T20:42:04;95070.38;;;9.61;64.60
20860;BME280;10590;48.154;11.514;2022-12-22T20:47:08;95059.75;;;9.52;64.94
20860;BME280;10590;48.154;11.514;2022-12-22T20:52:21;95060.81;;;9.60;65.10
20860;BME280;10590;48.154;11.514;2022-12-22T20:57:28;95052.84;;;9.60;64.71
20860;BME280;10590;48.154;11.514;2022-12-22T21:02:29;95043.56;;;9.66;64.32
20860;BME280;10590;48.154;11.514;2022-12-22T21:07:31;95045.63;;;9.60;64.71
20860;BME280;10590;48.154;11.514;2022-12-22T21:12:37;95036.41;;;9.57;64.81
20860;BME280;10590;48.154;11.514;2022-12-22T21:17:39;95049.34;;;9.68;65.06
20860;BME280;10590;48.154;11.514;2022-12-22T21:22:50;95039.31;;;9.65;64.25
20860;BME280;10590;48.154;11.514;2022-12-22T21:27:53;95049.06;;;9.61;64.75
20860;BME280;10590;48.154;11.514;2022-12-22T21:32:55;95022.81;;;9.42;65.00
20860;BME280;10590;48.154;11.514;2022-12-22T21:37:57;95038.88;;;9.63;64.80
20860;BME280;10590;48.154;11.514;2022-12-22T21:43:01;95028.69;;;9.65;64.77
20860;BME280;10590;48.154;11.514;2022-12-22T21:48:04;95023.22;;;9.61;64.81
20860;BME280;10590;48.154;11.514;2022-12-22T21:53:06;95025.28;;;9.55;65.42
20860;BME280;10590;48.154;11.514;2022-12-22T21:58:11;95030.13;;;9.53;65.63
20860;BME280;10590;48.154;11.514;2022-12-22T22:03:14;95016.84;;;9.45;66.63
20860;BME280;10590;48.154;11.514;2022-12-22T22:08:16;95007.50;;;9.39;66.61
20860;BME280;10590;48.154;11.514;2022-12-22T22:13:19;95008.00;;;9.32;67.63
20860;BME280;10590;48.154;11.514;2022-12-22T22:18:21;94989.72;;;9.22;68.09
20860;BME280;10590;48.154;11.514;2022-12-22T22:23:22;94974.03;;;9.29;68.07
20860;BME280;10590;48.154;11.514;2022-12-22T22:28:26;94952.47;;;9.22;68.18
20860;BME280;10590;48.154;11.514;2022-12-22T22:33:27;94944.22;;;9.15;68.29
20860;BME280;10590;48.154;11.514;2022-12-22T22:38:29;94941.88;;;9.13;68.23
20860;BME280;10590;48.154;11.514;2022-12-22T22:43:32;94937.59;;;9.21;67.86
20860;BME280;10590;48.154;11.514;2022-12-22T22:48:34;94927.59;;;9.18;67.95
20860;BME280;10590;48.154;11.514;2022-12-22T22:53:36;94925.13;;;9.13;68.22
20860;BME280;10590;48.154;11.514;2022-12-22T22:58:39;94927.84;;;9.04;68.92
20860;BME280;10590;48.154;11.514;2022-12-22T23:03:41;94903.66;;;8.88;70.19
20860;BME280;10590;48.154;11.514;2022-12-22T23:08:42;94894.25;;;8.91;69.95
20860;BME280;10590;48.154;11.514;2022-12-22T23:13:45;94873.16;;;8.86;70.35
20860;BME280;10590;48.154;11.514;2022-12-22T23:18:47;94879.81;;;8.71;71.69
20860;BME280;10590;48.154;11.514;2022-12-22T23:23:53;94865.28;;;8.60;72.60
20860;BME280;10590;48.154;11.514;2022-12-22T23:28:56;94865.16;;;8.56;73.35
20860;BME280;10590;48.154;11.514;2022-12-22T23:33:57;94875.72;;;8.36;75.29
20860;BME280;10590;48.154;11.514;2022-12-22T23:38:59;94879.34;;;8.22;76.92
20860;BME280;10590;48.154;11.514;2022-12-22T23:44:02;94853.59;;;8.06;78.60
20860;BME280;10590;48.154;11.514;2022-12-22T23:49:03;94861.44;;;8.02;79.07
20860;BME280;10590;48.154;11.514;2022-12-22T23:54:05;94886.47;;;7.92;80.88
20860;BME280;10590;48.154;11.514;2022-12-22T23:59:08;94870.50;;;8.01;80.35
